sensor_id;sensor_type;location;lat;lon;timestamp;pressure;altitude;pressure_sealevel;temperature;humidity
11190;BME280;5651;50.926;4.718;2023-02-17T00:02:02;101981.38;;;12.32;100.00
11190;BME280;5651;50.926;4.718;2023-02-17T00:04:30;101978.78;;;12.37;100.00
11190;BME280;5651;50.926;4.718;2023-02-17T00:06:57;101966.59;;;12.38;100.00
11190;BME280;5651;50.926;4.718;2023-02-17T00:09:23;101976.16;;;12.34;100.00
11190;BME280;5651;50.926;4.718;2023-02-17T00:11:50;101982.31;;;12.41;100.00
11190;BME280;5651;50.926;4.718;2023-02-17T00:14:16;101992.66;;;12.28;100.00
11190;BME280;5651;50.926;4.718;2023-02-17T00:16:42;101982.28;;;12.38;100.00
11190;BME280;5651;50.926;4.718;2023-02-17T00:19:09;102009.22;;;12.27;100.00
11190;BME280;5651;50.926;4.718;2023-02-17T00:21:53;101984.84;;;12.30;100.00
11190;BME280;5651;50.926;4.718;2023-02-17T00:24:20;101993.56;;;12.29;100.00
11190;BME280;5651;50.926;4.718;2023-02-17T00:26:47;101990.00;;;12.24;100.00
11190;BME280;5651;50.926;4.718;2023-02-17T00:29:13;101991.78;;;12.29;100.00
11190;BME280;5651;50.926;4.718;2023-02-17T00:31:39;101983.09;;;12.32;100.00
11190;BME280;5651;50.926;4.718;2023-02-17T00:34:05;101983.09;;;12.30;100.00
11190;BME280;5651;50.926;4.718;2023-02-17T00:36:31;101984.00;;;12.32;100.00
11190;BME280;5651;50.926;4.718;2023-02-17T00:38:57;101983.13;;;12.36;100.00
11190;BME280;5651;50.926;4.718;2023-02-17T00:41:24;101978.72;;;12.29;100.00
11190;BME280;5651;50.926;4.718;2023-02-17T00:43:50;101977.91;;;12.35;100.00
11190;BME280;5651;50.926;4.718;2023-02-17T00:46:17;101975.25;;;12.27;100.00
11190;BME280;5651;50.926;4.718;2023-02-17T00:48:43;101973.44;;;12.20;100.00
11190;BME280;5651;50.926;4.718;2023-02-17T00:51:09;101967.34;;;12.19;100.00
11190;BME280;5651;50.926;4.718;2023-02-17T00:53:35;101966.50;;;12.19;100.00
11190;BME280;5651;50.926;4.718;2023-02-17T00:56:01;101951.66;;;12.21;100.00
11190;BME280;5651;50.926;4.718;2023-02-17T00:58:27;101943.81;;;12.21;100.00
11190;BME280;5651;50.926;4.718;2023-02-17T01:00:56;101931.66;;;12.23;100.00
11190;BME280;5651;50.926;4.718;2023-02-17T01:03:23;101929.91;;;12.19;100.00
11190;BME280;5651;50.926;4.718;2023-02-17T01:05:49;101930.75;;;12.18;100.00
11190;BME280;5651;50.926;4.718;2023-02-17T01:08:16;101930.75;;;12.21;100.00
11190;BME280;5651;50.926;4.718;2023-02-17T01:10:44;101929.91;;;12.22;100.00
11190;BME280;5651;50.926;4.718;2023-02-17T01:13:11;101922.06;;;12.20;100.00
11190;BME280;5651;50.926;4.718;2023-02-17T01:15:38;101931.63;;;12.18;100.00
11190;BME280;5651;50.926;4.718;2023-02-17T01:18:04;101927.28;;;12.20;100.00
11190;BME280;5651;50.926;4.718;2023-02-17T01:20:33;101927.19;;;12.05;100.00
11190;BME280;5651;50.926;4.718;2023-02-17T01:22:59;101942.06;;;12.15;100.00
11190;BME280;5651;50.926;4.718;2023-02-17T01:25:25;101918.56;;;12.20;100.00
11190;BME280;5651;50.926;4.718;2023-02-17T01:27:51;101932.47;;;12.14;100.00
11190;BME280;5651;50.926;4.718;2023-02-17T01:30:17;101932.47;;;12.16;100.00
11190;BME280;5651;50.926;4.718;2023-02-17T01:32:42;101923.75;;;12.11;100.00
11190;BME280;5651;50.926;4.718;2023-02-17T01:35:08;101914.16;;;12.11;100.00
11190;BME280;5651;50.926;4.718;2023-02-17T01:37:34;101931.53;;;12.01;100.00
11190;BME280;5651;50.926;4.718;2023-02-17T01:40:13;101927.19;;;12.03;100.00
11190;BME280;5651;50.926;4.718;2023-02-17T01:42:39;101930.63;;;11.98;100.00
11190;BME280;5651;50.926;4.718;2023-02-17T01:47:55;101924.56;;;12.03;100.00
11190;BME280;5651;50.926;4.718;2023-02-17T01:50:27;101935.00;;;12.00;100.00
11190;BME280;5651;50.926;4.718;2023-02-17T01:52:56;101938.50;;;12.05;100.00
11190;BME280;5651;50.926;4.718;2023-02-17T01:55:23;101930.66;;;12.02;100.00
11190;BME280;5651;50.926;4.718;2023-02-17T01:57:53;101941.94;;;11.97;100.00
11190;BME280;5651;50.926;4.718;2023-02-17T02:00:22;101928.88;;;11.98;100.00
11190;BME280;5651;50.926;4.718;2023-02-17T02:02:50;101920.97;;;11.92;100.00
11190;BME280;5651;50.926;4.718;2023-02-17T02:05:17;101927.91;;;11.90;100.00
11190;BME280;5651;50.926;4.718;2023-02-17T02:07:44;101934.88;;;11.91;100.00
11190;BME280;5651;50.926;4.718;2023-02-17T02:10:13;101936.63;;;11.94;100.00
11190;BME280;5651;50.926;4.718;2023-02-17T02:12:40;101943.53;;;11.84;100.00
11190;BME280;5651;50.926;4.718;2023-02-17T02:15:12;101930.47;;;11.84;100.00
11190;BME280;5651;50.926;4.718;2023-02-17T02:20:32;101945.25;;;11.79;100.00
11190;BME280;5651;50.926;4.718;2023-02-17T02:34:48;101941.59;;;11.60;100.00
11190;BME280;5651;50.926;4.718;2023-02-17T02:37:24;101940.75;;;11.62;100.00
11190;BME280;5651;50.926;4.718;2023-02-17T02:39:51;101944.25;;;11.64;100.00
11190;BME280;5651;50.926;4.718;2023-02-17T02:42:21;101933.75;;;11.58;100.00
11190;BME280;5651;50.926;4.718;2023-02-17T02:44:48;101944.97;;;11.49;100.00
11190;BME280;5651;50.926;4.718;2023-02-17T02:47:46;101923.31;;;11.58;100.00
11190;BME280;5651;50.926;4.718;2023-02-17T02:50:35;101921.53;;;11.52;100.00
11190;BME280;5651;50.926;4.718;2023-02-17T02:58:17;101905.81;;;11.48;100.00
11190;BME280;5651;50.926;4.718;2023-02-17T03:00:53;101895.34;;;11.43;100.00
11190;BME280;5651;50.926;4.718;2023-02-17T03:03:28;101890.09;;;11.41;100.00
11190;BME280;5651;50.926;4.718;2023-02-17T03:06:05;101888.44;;;11.50;100.00
11190;BME280;5651;50.926;4.718;2023-02-17T03:08:54;101897.97;;;11.46;100.00
11190;BME280;5651;50.926;4.718;2023-02-17T03:11:23;101893.53;;;11.36;100.00
11190;BME280;5651;50.926;4.718;2023-02-17T03:14:10;101901.38;;;11.37;100.00
11190;BME280;5651;50.926;4.718;2023-02-17T03:16:37;101895.28;;;11.38;100.00
11190;BME280;5651;50.926;4.718;2023-02-17T03:19:04;101897.84;;;11.32;100.00
11190;BME280;5651;50.926;4.718;2023-02-17T03:21:58;101901.41;;;11.39;100.00
11190;BME280;5651;50.926;4.718;2023-02-17T03:24:26;101906.59;;;11.37;100.00
11190;BME280;5651;50.926;4.718;2023-02-17T03:26:52;101895.28;;;11.37;100.00
11190;BME280;5651;50.926;4.718;2023-02-17T03:29:17;101908.28;;;11.34;100.00
11190;BME280;5651;50.926;4.718;2023-02-17T03:31:43;101896.91;;;11.24;100.00
11190;BME280;5651;50.926;4.718;2023-02-17T03:34:09;101896.09;;;11.31;100.00
11190;BME280;5651;50.926;4.718;2023-02-17T03:36:34;101904.81;;;11.32;100.00
11190;BME280;5651;50.926;4.718;2023-02-17T03:39:00;101896.09;;;11.31;100.00
11190;BME280;5651;50.926;4.718;2023-02-17T03:41:26;101895.16;;;11.23;100.00
11190;BME280;5651;50.926;4.718;2023-02-17T03:43:51;101899.59;;;11.35;100.00
11190;BME280;5651;50.926;4.718;2023-02-17T03:46:17;101903.06;;;11.32;100.00
11190;BME280;5651;50.926;4.718;2023-02-17T03:48:43;101902.97;;;11.21;100.00
11190;BME280;5651;50.926;4.718;2023-02-17T03:51:21;101893.38;;;11.20;100.00
11190;BME280;5651;50.926;4.718;2023-02-17T03:53:47;101897.75;;;11.20;100.00
11190;BME280;5651;50.926;4.718;2023-02-17T03:56:14;101897.75;;;11.20;100.00
11190;BME280;5651;50.926;4.718;2023-02-17T03:58:40;101900.41;;;11.26;100.00
11190;BME280;5651;50.926;4.718;2023-02-17T04:01:08;101894.28;;;11.25;100.00
11190;BME280;5651;50.926;4.718;2023-02-17T04:03:34;101881.25;;;11.24;100.00
11190;BME280;5651;50.926;4.718;2023-02-17T04:06:01;101879.53;;;11.28;100.00
11190;BME280;5651;50.926;4.718;2023-02-17T04:08:27;101876.94;;;11.29;100.00
11190;BME280;5651;50.926;4.718;2023-02-17T04:10:57;101881.28;;;11.29;100.00
11190;BME280;5651;50.926;4.718;2023-02-17T04:13:24;101879.63;;;11.35;100.00
11190;BME280;5651;50.926;4.718;2023-02-17T04:15:50;101887.38;;;11.29;100.00
11190;BME280;5651;50.926;4.718;2023-02-17T04:18:17;101889.97;;;11.28;100.00
11190;BME280;5651;50.926;4.718;2023-02-17T04:20:43;101889.13;;;11.30;100.00
11190;BME280;5651;50.926;4.718;2023-02-17T04:23:10;101903.03;;;11.29;100.00
11190;BME280;5651;50.926;4.718;2023-02-17T04:25:36;101902.16;;;11.30;100.00
11190;BME280;5651;50.926;4.718;2023-02-17T04:28:03;101894.34;;;11.27;100.00
11190;BME280;5651;50.926;4.718;2023-02-17T04:30:29;101910.00;;;11.30;100.00
11190;BME280;5651;50.926;4.718;2023-02-17T04:32:55;101898.66;;;11.26;100.00
11190;BME280;5651;50.926;4.718;2023-02-17T04:35:21;101903.91;;;11.30;100.00
11190;BME280;5651;50.926;4.718;2023-02-17T04:37:47;101905.69;;;11.32;100.00
11190;BME280;5651;50.926;4.718;2023-02-17T04:40:13;101891.72;;;11.30;100.00
11190;BME280;5651;50.926;4.718;2023-02-17T04:42:39;101908.25;;;11.29;100.00
11190;BME280;5651;50.926;4.718;2023-02-17T04:45:05;101906.47;;;11.23;100.00
11190;BME280;5651;50.926;4.718;2023-02-17T04:47:31;101908.28;;;11.31;100.00
11190;BME280;5651;50.926;4.718;2023-02-17T04:49:57;101920.53;;;11.38;100.00
11190;BME280;5651;50.926;4.718;2023-02-17T04:52:23;101897.91;;;11.38;100.00
11190;BME280;5651;50.926;4.718;2023-02-17T04:54:48;101915.25;;;11.32;100.00
11190;BME280;5651;50.926;4.718;2023-02-17T04:57:14;101920.53;;;11.38;100.00
11190;BME280;5651;50.926;4.718;2023-02-17T04:59:40;101915.25;;;11.33;100.00
11190;BME280;5651;50.926;4.718;2023-02-17T05:02:05;101911.81;;;11.37;100.00
11190;BME280;5651;50.926;4.718;2023-02-17T05:04:31;101915.25;;;11.33;100.00
11190;BME280;5651;50.926;4.718;2023-02-17T05:06:57;101919.59;;;11.31;100.00
11190;BME280;5651;50.926;4.718;2023-02-17T05:09:23;101914.41;;;11.37;100.00
11190;BME280;5651;50.926;4.718;2023-02-17T05:11:48;101918.78;;;11.38;100.00
11190;BME280;5651;50.926;4.718;2023-02-17T05:14:14;101910.97;;;11.40;100.00
11190;BME280;5651;50.926;4.718;2023-02-17T05:16:40;101919.56;;;11.28;100.00
11190;BME280;5651;50.926;4.718;2023-02-17T05:19:05;101910.94;;;11.35;100.00
11190;BME280;5651;50.926;4.718;2023-02-17T05:21:31;101908.38;;;11.40;100.00
11190;BME280;5651;50.926;4.718;2023-02-17T05:23:57;101908.38;;;11.41;100.00
11190;BME280;5651;50.926;4.718;2023-02-17T05:26:24;101903.97;;;11.36;100.00
11190;BME280;5651;50.926;4.718;2023-02-17T05:28:50;101901.41;;;11.42;100.00
11190;BME280;5651;50.926;4.718;2023-02-17T05:31:15;101906.56;;;11.34;100.00
11190;BME280;5651;50.926;4.718;2023-02-17T05:33:41;101898.75;;;11.34;100.00
11190;BME280;5651;50.926;4.718;2023-02-17T05:36:08;101906.53;;;11.31;100.00
11190;BME280;5651;50.926;4.718;2023-02-17T05:38:35;101903.13;;;11.38;100.00
11190;BME280;5651;50.926;4.718;2023-02-17T05:41:01;101897.03;;;11.39;100.00
11190;BME280;5651;50.926;4.718;2023-02-17T05:43:27;101890.88;;;11.31;100.00
11190;BME280;5651;50.926;4.718;2023-02-17T05:45:53;101905.69;;;11.32;100.00
11190;BME280;5651;50.926;4.718;2023-02-17T05:48:19;101904.88;;;11.36;100.00
11190;BME280;5651;50.926;4.718;2023-02-17T05:50:45;101896.09;;;11.31;100.00
11190;BME280;5651;50.926;4.718;2023-02-17T05:53:11;101899.50;;;11.25;100.00
11190;BME280;5651;50.926;4.718;2023-02-17T05:55:37;101887.38;;;11.28;100.00
11190;BME280;5651;50.926;4.718;2023-02-17T05:58:03;101898.75;;;11.36;100.00
11190;BME280;5651;50.926;4.718;2023-02-17T06:00:29;101905.69;;;11.34;100.00
11190;BME280;5651;50.926;4.718;2023-02-17T06:02:55;101904.88;;;11.36;100.00
11190;BME280;5651;50.926;4.718;2023-02-17T06:05:21;101913.56;;;11.35;100.00
11190;BME280;5651;50.926;4.718;2023-02-17T06:07:47;101901.31;;;11.28;100.00
11190;BME280;5651;50.926;4.718;2023-02-17T06:10:13;101902.25;;;11.36;100.00
11190;BME280;5651;50.926;4.718;2023-02-17T06:12:39;101913.56;;;11.38;100.00
11190;BME280;5651;50.926;4.718;2023-02-17T06:15:05;101910.03;;;11.33;100.00
11190;BME280;5651;50.926;4.718;2023-02-17T06:17:31;101910.94;;;11.35;100.00
11190;BME280;5651;50.926;4.718;2023-02-17T06:19:56;101900.47;;;11.34;100.00
11190;BME280;5651;50.926;4.718;2023-02-17T06:22:22;101900.50;;;11.37;100.00
11190;BME280;5651;50.926;4.718;2023-02-17T06:24:48;101892.72;;;11.40;100.00
11190;BME280;5651;50.926;4.718;2023-02-17T06:27:14;101911.75;;;11.31;100.00
11190;BME280;5651;50.926;4.718;2023-02-17T06:29:40;101902.25;;;11.38;100.00
11190;BME280;5651;50.926;4.718;2023-02-17T06:32:06;101897.03;;;11.39;100.00
11190;BME280;5651;50.926;4.718;2023-02-17T06:34:32;101910.91;;;11.32;100.00
11190;BME280;5651;50.926;4.718;2023-02-17T06:36:57;101893.63;;;11.47;100.00
11190;BME280;5651;50.926;4.718;2023-02-17T06:39:23;101894.53;;;11.49;100.00
11190;BME280;5651;50.926;4.718;2023-02-17T06:41:49;101904.06;;;11.45;100.00
11190;BME280;5651;50.926;4.718;2023-02-17T06:44:15;101899.69;;;11.43;100.00
11190;BME280;5651;50.926;4.718;2023-02-17T06:46:41;101908.47;;;11.51;100.00
11190;BME280;5651;50.926;4.718;2023-02-17T06:49:06;101911.03;;;11.46;100.00
11190;BME280;5651;50.926;4.718;2023-02-17T06:51:32;101906.72;;;11.51;100.00
11190;BME280;5651;50.926;4.718;2023-02-17T06:53:58;101908.44;;;11.48;100.00
11190;BME280;5651;50.926;4.718;2023-02-17T06:56:23;101908.44;;;11.48;100.00
11190;BME280;5651;50.926;4.718;2023-02-17T06:58:50;101903.16;;;11.43;100.00
11190;BME280;5651;50.926;4.718;2023-02-17T07:01:18;101911.00;;;11.41;100.00
11190;BME280;5651;50.926;4.718;2023-02-17T07:03:44;101898.75;;;11.37;100.00
11190;BME280;5651;50.926;4.718;2023-02-17T07:06:10;101904.88;;;11.41;100.00
11190;BME280;5651;50.926;4.718;2023-02-17T07:08:36;101901.41;;;11.42;100.00
11190;BME280;5651;50.926;4.718;2023-02-17T07:11:06;101895.28;;;11.35;100.00
11190;BME280;5651;50.926;4.718;2023-02-17T07:13:32;101896.19;;;11.42;100.00
11190;BME280;5651;50.926;4.718;2023-02-17T07:15:58;101892.69;;;11.37;100.00
11190;BME280;5651;50.926;4.718;2023-02-17T07:18:24;101893.56;;;11.40;100.00
11190;BME280;5651;50.926;4.718;2023-02-17T07:20:49;101892.72;;;11.45;100.00
11190;BME280;5651;50.926;4.718;2023-02-17T07:23:17;101885.78;;;11.45;100.00
11190;BME280;5651;50.926;4.718;2023-02-17T07:25:43;101892.78;;;11.49;100.00
11190;BME280;5651;50.926;4.718;2023-02-17T07:28:09;101894.53;;;11.50;100.00
11190;BME280;5651;50.926;4.718;2023-02-17T07:30:38;101895.38;;;11.46;100.00
11190;BME280;5651;50.926;4.718;2023-02-17T07:33:04;101901.53;;;11.56;100.00
11190;BME280;5651;50.926;4.718;2023-02-17T07:35:30;101900.69;;;11.58;100.00
11190;BME280;5651;50.926;4.718;2023-02-17T07:37:57;101912.88;;;11.60;100.00
11190;BME280;5651;50.926;4.718;2023-02-17T07:40:23;101915.50;;;11.61;100.00
11190;BME280;5651;50.926;4.718;2023-02-17T07:42:49;101917.28;;;11.68;100.00
11190;BME280;5651;50.926;4.718;2023-02-17T07:45:15;101906.91;;;11.73;100.00
11190;BME280;5651;50.926;4.718;2023-02-17T07:47:40;101913.00;;;11.73;100.00
11190;BME280;5651;50.926;4.718;2023-02-17T07:50:07;101910.31;;;11.67;100.00
11190;BME280;5651;50.926;4.718;2023-02-17T07:52:33;101908.59;;;11.71;100.00
11190;BME280;5651;50.926;4.718;2023-02-17T07:54:58;101908.59;;;11.71;100.00
11190;BME280;5651;50.926;4.718;2023-02-17T07:57:24;101917.34;;;11.70;100.00
11190;BME280;5651;50.926;4.718;2023-02-17T07:59:50;101911.25;;;11.72;100.00
11190;BME280;5651;50.926;4.718;2023-02-17T08:02:15;101903.41;;;11.74;100.00
11190;BME280;5651;50.926;4.718;2023-02-17T08:04:41;101908.69;;;11.80;100.00
11190;BME280;5651;50.926;4.718;2023-02-17T08:07:07;101910.44;;;11.83;100.00
11190;BME280;5651;50.926;4.718;2023-02-17T08:09:33;101911.34;;;11.85;100.00
11190;BME280;5651;50.926;4.718;2023-02-17T08:12:19;101914.03;;;11.94;100.00
11190;BME280;5651;50.926;4.718;2023-02-17T08:15:05;101913.13;;;11.89;100.00
11190;BME280;5651;50.926;4.718;2023-02-17T08:17:32;101915.75;;;11.89;100.00
11190;BME280;5651;50.926;4.718;2023-02-17T08:19:58;101910.47;;;11.86;100.00
11190;BME280;5651;50.926;4.718;2023-02-17T08:22:23;101913.09;;;11.87;100.00
11190;BME280;5651;50.926;4.718;2023-02-17T08:24:49;101930.53;;;11.90;100.00
11190;BME280;5651;50.926;4.718;2023-02-17T08:27:15;101918.38;;;11.95;100.00
11190;BME280;5651;50.926;4.718;2023-02-17T08:29:46;101910.50;;;11.89;100.00
11190;BME280;5651;50.926;4.718;2023-02-17T08:32:14;101927.03;;;11.89;100.00
11190;BME280;5651;50.926;4.718;2023-02-17T08:34:42;101919.16;;;11.86;100.00
11190;BME280;5651;50.926;4.718;2023-02-17T08:37:08;101923.66;;;11.98;100.00
11190;BME280;5651;50.926;4.718;2023-02-17T08:39:35;101921.97;;;12.03;100.00
11190;BME280;5651;50.926;4.718;2023-02-17T08:42:02;101929.84;;;12.10;100.00
11190;BME280;5651;50.926;4.718;2023-02-17T08:44:29;101921.13;;;12.12;100.00
11190;BME280;5651;50.926;4.718;2023-02-17T08:46:54;101922.88;;;12.15;100.00
11190;BME280;5651;50.926;4.718;2023-02-17T08:49:23;101921.16;;;12.17;100.00
11190;BME280;5651;50.926;4.718;2023-02-17T08:51:49;101929.03;;;12.23;100.00
11190;BME280;5651;50.926;4.718;2023-02-17T08:54:16;101924.72;;;12.25;100.00
11190;BME280;5651;50.926;4.718;2023-02-17T08:56:42;101921.22;;;12.28;100.00
11190;BME280;5651;50.926;4.718;2023-02-17T08:59:09;101918.59;;;12.25;100.00
11190;BME280;5651;50.926;4.718;2023-02-17T09:01:36;101918.66;;;12.32;100.00
11190;BME280;5651;50.926;4.718;2023-02-17T09:04:03;101923.88;;;12.35;100.00
11190;BME280;5651;50.926;4.718;2023-02-17T09:06:48;101933.50;;;12.40;100.00
11190;BME280;5651;50.926;4.718;2023-02-17T09:09:17;101932.63;;;12.44;100.00
11190;BME280;5651;50.926;4.718;2023-02-17T09:11:44;101920.44;;;12.47;100.00
11190;BME280;5651;50.926;4.718;2023-02-17T09:14:10;101935.34;;;12.56;100.00
11190;BME280;5651;50.926;4.718;2023-02-17T09:16:36;101936.25;;;12.64;100.00
11190;BME280;5651;50.926;4.718;2023-02-17T09:19:02;101932.72;;;12.64;100.00
11190;BME280;5651;50.926;4.718;2023-02-17T09:21:28;101945.00;;;12.80;100.00
11190;BME280;5651;50.926;4.718;2023-02-17T09:23:54;101938.06;;;12.82;100.00
11190;BME280;5651;50.926;4.718;2023-02-17T09:26:20;101947.66;;;12.83;100.00
11190;BME280;5651;50.926;4.718;2023-02-17T09:28:46;101936.34;;;12.92;100.00
11190;BME280;5651;50.926;4.718;2023-02-17T09:31:21;101932.00;;;12.96;100.00
11190;BME280;5651;50.926;4.718;2023-02-17T09:33:48;101929.41;;;13.08;100.00
11190;BME280;5651;50.926;4.718;2023-02-17T09:36:17;101945.13;;;13.19;100.00
11190;BME280;5651;50.926;4.718;2023-02-17T09:38:44;101948.63;;;13.34;100.00
11190;BME280;5651;50.926;4.718;2023-02-17T09:41:25;101942.56;;;13.38;100.00
11190;BME280;5651;50.926;4.718;2023-02-17T09:43:53;101947.84;;;13.47;100.00
11190;BME280;5651;50.926;4.718;2023-02-17T09:46:29;101931.25;;;13.56;100.00
11190;BME280;5651;50.926;4.718;2023-02-17T09:49:01;101942.59;;;13.66;100.00
11190;BME280;5651;50.926;4.718;2023-02-17T09:51:35;101947.84;;;13.73;100.00
11190;BME280;5651;50.926;4.718;2023-02-17T09:54:17;101940.88;;;13.82;100.00
11190;BME280;5651;50.926;4.718;2023-02-17T09:56:46;101943.47;;;13.92;100.00
11190;BME280;5651;50.926;4.718;2023-02-17T09:59:34;101951.34;;;13.99;100.00
11190;BME280;5651;50.926;4.718;2023-02-17T10:02:06;101949.59;;;14.07;100.00
11190;BME280;5651;50.926;4.718;2023-02-17T10:04:43;101931.22;;;14.04;100.00
11190;BME280;5651;50.926;4.718;2023-02-17T10:07:17;101946.09;;;14.03;100.00
11190;BME280;5651;50.926;4.718;2023-02-17T10:09:51;101944.31;;;14.08;100.00
11190;BME280;5651;50.926;4.718;2023-02-17T10:12:19;101953.06;;;14.12;100.00
11190;BME280;5651;50.926;4.718;2023-02-17T10:14:58;101953.06;;;14.12;100.00
11190;BME280;5651;50.926;4.718;2023-02-17T10:19:56;101951.28;;;14.13;100.00
11190;BME280;5651;50.926;4.718;2023-02-17T10:22:25;101956.53;;;14.13;100.00
11190;BME280;5651;50.926;4.718;2023-02-17T10:24:52;101960.03;;;14.19;100.00
11190;BME280;5651;50.926;4.718;2023-02-17T10:33:01;101969.63;;;14.40;100.00
11190;BME280;5651;50.926;4.718;2023-02-17T10:35:37;101979.19;;;14.49;100.00
11190;BME280;5651;50.926;4.718;2023-02-17T10:41:09;101965.19;;;14.56;100.00
11190;BME280;5651;50.926;4.718;2023-02-17T10:43:36;101972.16;;;14.70;100.00
11190;BME280;5651;50.926;4.718;2023-02-17T10:46:05;101976.53;;;14.74;99.96
11190;BME280;5651;50.926;4.718;2023-02-17T10:48:39;101989.66;;;14.79;100.00
11190;BME280;5651;50.926;4.718;2023-02-17T10:51:06;101986.13;;;14.83;99.41
11190;BME280;5651;50.926;4.718;2023-02-17T10:53:35;101976.50;;;14.82;99.11
11190;BME280;5651;50.926;4.718;2023-02-17T10:56:07;101982.56;;;14.96;99.42
11190;BME280;5651;50.926;4.718;2023-02-17T11:01:12;101991.34;;;14.95;95.40
11190;BME280;5651;50.926;4.718;2023-02-17T11:03:39;102001.78;;;15.03;96.29
11190;BME280;5651;50.926;4.718;2023-02-17T11:06:20;102008.84;;;14.93;93.74
11190;BME280;5651;50.926;4.718;2023-02-17T11:08:58;101994.84;;;14.86;94.85
11190;BME280;5651;50.926;4.718;2023-02-17T11:11:27;101998.31;;;14.99;94.17
11190;BME280;5651;50.926;4.718;2023-02-17T11:16:33;101999.25;;;14.86;91.83
11190;BME280;5651;50.926;4.718;2023-02-17T11:19:01;102006.22;;;14.88;92.83
11190;BME280;5651;50.926;4.718;2023-02-17T11:21:28;101985.22;;;14.85;91.54
11190;BME280;5651;50.926;4.718;2023-02-17T11:23:58;102001.00;;;14.84;92.35
11190;BME280;5651;50.926;4.718;2023-02-17T11:26:26;102000.97;;;14.85;91.86
11190;BME280;5651;50.926;4.718;2023-02-17T11:28:53;101992.25;;;14.85;92.93
11190;BME280;5651;50.926;4.718;2023-02-17T11:31:27;101990.44;;;14.98;92.11
11190;BME280;5651;50.926;4.718;2023-02-17T11:33:53;101992.19;;;14.96;91.43
11190;BME280;5651;50.926;4.718;2023-02-17T11:36:23;101987.84;;;14.88;90.22
11190;BME280;5651;50.926;4.718;2023-02-17T11:38:49;101993.06;;;14.99;91.94
11190;BME280;5651;50.926;4.718;2023-02-17T11:41:15;101987.72;;;15.12;91.88
11190;BME280;5651;50.926;4.718;2023-02-17T11:43:57;101993.88;;;15.12;90.61
11190;BME280;5651;50.926;4.718;2023-02-17T11:49:29;102015.75;;;15.14;91.12
11190;BME280;5651;50.926;4.718;2023-02-17T11:52:16;102012.22;;;15.18;91.12
11190;BME280;5651;50.926;4.718;2023-02-17T12:00:21;102009.50;;;15.31;91.15
11190;BME280;5651;50.926;4.718;2023-02-17T12:14:13;101976.81;;;15.77;85.72
11190;BME280;5651;50.926;4.718;2023-02-17T12:16:52;101976.75;;;15.89;86.89
11190;BME280;5651;50.926;4.718;2023-02-17T12:19:50;101971.50;;;15.88;86.16
11190;BME280;5651;50.926;4.718;2023-02-17T12:22:43;101969.75;;;15.90;86.38
11190;BME280;5651;50.926;4.718;2023-02-17T12:25:25;101975.88;;;15.89;85.49
11190;BME280;5651;50.926;4.718;2023-02-17T12:33:20;101990.06;;;15.63;84.17
11190;BME280;5651;50.926;4.718;2023-02-17T12:35:53;101989.28;;;15.48;83.56
11190;BME280;5651;50.926;4.718;2023-02-17T12:38:30;101988.28;;;15.66;82.64
11190;BME280;5651;50.926;4.718;2023-02-17T12:41:13;101991.00;;;15.51;81.69
11190;BME280;5651;50.926;4.718;2023-02-17T12:43:50;101996.97;;;15.75;82.79
11190;BME280;5651;50.926;4.718;2023-02-17T12:46:22;102010.91;;;15.92;81.96
11190;BME280;5651;50.926;4.718;2023-02-17T12:48:56;102005.50;;;16.09;82.25
11190;BME280;5651;50.926;4.718;2023-02-17T12:51:32;102008.94;;;16.18;79.92
11190;BME280;5651;50.926;4.718;2023-02-17T12:54:29;102012.56;;;16.04;82.55
11190;BME280;5651;50.926;4.718;2023-02-17T12:57:06;102017.88;;;15.95;80.37
11190;BME280;5651;50.926;4.718;2023-02-17T12:59:43;102004.72;;;15.96;81.22
11190;BME280;5651;50.926;4.718;2023-02-17T13:02:15;102024.97;;;15.82;82.41
11190;BME280;5651;50.926;4.718;2023-02-17T13:04:43;102011.91;;;15.68;81.89
11190;BME280;5651;50.926;4.718;2023-02-17T13:09:53;102022.50;;;15.56;82.63
11190;BME280;5651;50.926;4.718;2023-02-17T13:14:57;102018.00;;;15.72;84.81
11190;BME280;5651;50.926;4.718;2023-02-17T13:17:35;102004.00;;;15.73;83.32
11190;BME280;5651;50.926;4.718;2023-02-17T13:22:30;102002.78;;;16.19;79.97
11190;BME280;5651;50.926;4.718;2023-02-17T13:24:56;102019.28;;;16.31;80.72
11190;BME280;5651;50.926;4.718;2023-02-17T13:27:31;102025.41;;;16.37;79.25
11190;BME280;5651;50.926;4.718;2023-02-17T13:30:06;102023.84;;;16.15;77.92
11190;BME280;5651;50.926;4.718;2023-02-17T13:32:36;102021.13;;;16.25;80.35
11190;BME280;5651;50.926;4.718;2023-02-17T13:37:43;102043.34;;;15.90;78.74
11190;BME280;5651;50.926;4.718;2023-02-17T13:42:42;102024.22;;;15.66;79.64
11190;BME280;5651;50.926;4.718;2023-02-17T13:45:24;102024.22;;;15.63;79.33
11190;BME280;5651;50.926;4.718;2023-02-17T13:47:53;102029.78;;;15.09;81.93
11190;BME280;5651;50.926;4.718;2023-02-17T13:50:43;102028.91;;;15.03;81.26
11190;BME280;5651;50.926;4.718;2023-02-17T13:53:37;102023.66;;;15.05;82.49
11190;BME280;5651;50.926;4.718;2023-02-17T13:56:23;102014.94;;;14.94;82.67
11190;BME280;5651;50.926;4.718;2023-02-17T13:58:50;102015.84;;;14.94;83.34
11190;BME280;5651;50.926;4.718;2023-02-17T14:01:18;102023.69;;;15.00;82.65
11190;BME280;5651;50.926;4.718;2023-02-17T14:03:48;102023.72;;;14.89;82.63
11190;BME280;5651;50.926;4.718;2023-02-17T14:06:32;102025.50;;;14.77;84.07
11190;BME280;5651;50.926;4.718;2023-02-17T14:09:20;102037.75;;;14.70;84.00
11190;BME280;5651;50.926;4.718;2023-02-17T14:11:48;102035.13;;;14.54;85.07
11190;BME280;5651;50.926;4.718;2023-02-17T14:14:14;102043.94;;;14.33;84.98
11190;BME280;5651;50.926;4.718;2023-02-17T14:16:41;102052.69;;;14.26;85.71
11190;BME280;5651;50.926;4.718;2023-02-17T14:21:39;102068.41;;;14.12;86.27
11190;BME280;5651;50.926;4.718;2023-02-17T14:24:06;102052.66;;;14.01;87.13